createdAt,value
2023-03-26T00:01:39.001Z,4.58
2023-03-26T00:04:06.749Z,4.58
2023-03-26T00:06:36.752Z,4.44
2023-03-26T00:09:04.411Z,4.55
2023-03-26T00:11:30.994Z,4.60
2023-03-26T00:13:57.914Z,4.68
2023-03-26T00:16:25.775Z,4.78
2023-03-26T00:18:53.473Z,4.74
2023-03-26T00:21:21.706Z,4.89
2023-03-26T00:23:49.162Z,4.66
2023-03-26T00:26:17.428Z,4.71
2023-03-26T00:28:43.962Z,4.80
2023-03-26T00:31:14.658Z,4.72
2023-03-26T00:33:41.787Z,4.86
2023-03-26T00:36:10.496Z,4.78
2023-03-26T00:38:39.115Z,4.78
2023-03-26T00:41:07.139Z,4.75
2023-03-26T00:43:35.290Z,4.72
2023-03-26T00:46:02.302Z,4.79
2023-03-26T00:48:44.526Z,4.69
2023-03-26T00:51:12.798Z,4.59
2023-03-26T00:53:41.252Z,4.32
2023-03-26T00:56:08.572Z,4.39
2023-03-26T00:58:35.671Z,4.49
2023-03-26T01:01:04.212Z,4.43
2023-03-26T01:03:35.341Z,4.36
2023-03-26T01:06:11.283Z,4.38
2023-03-26T01:08:42.791Z,4.02
2023-03-26T01:11:14.533Z,4.18
2023-03-26T01:13:51.243Z,4.27
2023-03-26T01:16:21.323Z,4.26
2023-03-26T01:18:48.619Z,4.20
2023-03-26T01:21:22.505Z,3.79
2023-03-26T01:23:57.234Z,3.92
2023-03-26T01:26:24.355Z,3.97
2023-03-26T01:28:54.540Z,3.77
2023-03-26T01:31:37.173Z,3.86
2023-03-26T01:34:12.302Z,4.00
2023-03-26T01:36:46.952Z,4.13
2023-03-26T01:39:22.093Z,4.24
2023-03-26T01:41:55.600Z,4.83
2023-03-26T01:44:37.374Z,4.11
2023-03-26T01:47:05.248Z,4.16
2023-03-26T01:49:31.852Z,4.22
2023-03-26T01:51:58.505Z,4.41
2023-03-26T01:54:26.939Z,4.28
2023-03-26T01:57:15.491Z,4.11
2023-03-26T02:00:01.891Z,4.40
2023-03-26T02:02:39.210Z,4.52
2023-03-26T02:05:15.294Z,4.50
2023-03-26T02:07:41.783Z,4.46
2023-03-26T02:10:21.136Z,4.01
2023-03-26T02:12:47.738Z,4.27
2023-03-26T02:15:14.193Z,4.14
2023-03-26T02:17:40.859Z,3.97
2023-03-26T02:20:09.960Z,4.05
2023-03-26T02:22:40.742Z,3.88
2023-03-26T02:25:09.626Z,3.72
2023-03-26T02:27:36.723Z,3.79
2023-03-26T02:30:07.282Z,3.89
2023-03-26T02:32:35.035Z,3.92
2023-03-26T02:35:02.342Z,4.00
2023-03-26T02:37:30.732Z,4.02
2023-03-26T02:40:11.005Z,3.72
2023-03-26T02:42:40.202Z,3.63
2023-03-26T02:45:07.011Z,3.46
2023-03-26T02:48:02.555Z,3.44
2023-03-26T02:50:37.979Z,3.46
2023-03-26T02:53:30.796Z,3.46
2023-03-26T02:56:29.816Z,4.25
2023-03-26T02:59:09.080Z,3.78
2023-03-26T03:01:36.934Z,3.49
2023-03-26T03:04:04.271Z,3.54
2023-03-26T03:06:40.560Z,3.45
2023-03-26T03:09:08.610Z,3.50
2023-03-26T03:11:35.547Z,3.59
2023-03-26T03:14:02.476Z,3.26
2023-03-26T03:16:31.030Z,3.35
2023-03-26T03:19:02.956Z,3.18
2023-03-26T03:21:39.580Z,3.26
2023-03-26T03:24:07.531Z,3.22
2023-03-26T03:26:42.321Z,3.28
2023-03-26T03:29:20.568Z,3.16
2023-03-26T03:31:47.715Z,3.26
2023-03-26T03:34:38.580Z,3.61
2023-03-26T03:37:05.863Z,3.31
2023-03-26T03:39:41.140Z,3.25
2023-03-26T03:42:08.384Z,3.15
2023-03-26T03:44:38.081Z,3.13
2023-03-26T03:47:13.845Z,2.90
2023-03-26T03:49:41.244Z,2.89
2023-03-26T03:52:08.047Z,3.02
2023-03-26T03:54:39.630Z,3.25
2023-03-26T03:57:28.596Z,2.89
2023-03-26T03:59:59.506Z,2.83
2023-03-26T04:02:34.604Z,2.68
2023-03-26T04:05:06.016Z,2.98
2023-03-26T04:07:32.964Z,2.91
2023-03-26T04:10:06.685Z,2.87
2023-03-26T04:12:55.808Z,2.96
2023-03-26T04:15:42.882Z,3.06
2023-03-26T04:18:12.819Z,3.29
2023-03-26T04:20:46.807Z,2.91
2023-03-26T04:23:19.601Z,2.88
2023-03-26T04:25:53.467Z,3.02
2023-03-26T04:28:28.763Z,2.96
2023-03-26T04:31:24.123Z,2.76
2023-03-26T04:33:56.346Z,2.95
2023-03-26T04:36:27.082Z,2.92
2023-03-26T04:38:54.127Z,2.96
2023-03-26T04:41:27.380Z,2.91
2023-03-26T04:44:01.842Z,3.00
2023-03-26T04:46:28.829Z,3.00
2023-03-26T04:49:05.461Z,2.96
2023-03-26T04:51:38.124Z,3.09
2023-03-26T04:54:12.693Z,3.20
2023-03-26T04:56:52.660Z,3.31
2023-03-26T04:59:34.566Z,3.12
2023-03-26T05:02:05.108Z,3.09
2023-03-26T05:04:43.633Z,3.06
2023-03-26T05:07:11.148Z,3.25
2023-03-26T05:09:45.697Z,3.19
2023-03-26T05:12:16.558Z,2.96
2023-03-26T05:14:55.897Z,2.99
2023-03-26T05:17:43.628Z,3.25
2023-03-26T05:20:20.767Z,3.20
2023-03-26T05:22:48.037Z,3.16
2023-03-26T05:25:20.805Z,3.06
2023-03-26T05:27:48.278Z,2.96
2023-03-26T05:30:16.398Z,3.37
2023-03-26T05:32:48.770Z,3.61
2023-03-26T05:35:18.478Z,3.73
2023-03-26T05:37:45.982Z,3.82
2023-03-26T05:40:14.773Z,3.79
2023-03-26T05:42:46.017Z,3.87
2023-03-26T05:45:47.213Z,3.77
2023-03-26T05:48:25.451Z,3.86
2023-03-26T05:50:53.827Z,3.91
2023-03-26T05:53:21.514Z,3.86
2023-03-26T05:56:06.965Z,3.78
2023-03-26T05:58:59.534Z,3.99
2023-03-26T06:01:46.233Z,4.45
2023-03-26T06:04:32.072Z,4.98
2023-03-26T06:07:18.780Z,4.79
2023-03-26T06:09:56.377Z,4.99
2023-03-26T06:12:22.940Z,5.12
2023-03-26T06:14:49.485Z,5.39
2023-03-26T06:17:19.371Z,5.41
2023-03-26T06:20:09.253Z,5.07
2023-03-26T06:22:42.136Z,4.87
2023-03-26T06:25:24.575Z,4.93
2023-03-26T06:28:06.052Z,5.08
2023-03-26T06:31:01.832Z,5.35
2023-03-26T06:33:37.352Z,5.59
2023-03-26T06:36:04.780Z,5.50
2023-03-26T06:38:31.362Z,5.95
2023-03-26T06:41:04.561Z,5.93
2023-03-26T06:44:00.276Z,5.91
2023-03-26T06:46:55.908Z,6.23
2023-03-26T06:49:43.115Z,6.80
2023-03-26T06:52:35.899Z,6.79
2023-03-26T06:55:22.973Z,6.33
2023-03-26T06:58:11.431Z,6.84
2023-03-26T07:00:56.910Z,6.66
2023-03-26T07:03:41.991Z,6.50
2023-03-26T07:06:27.117Z,6.68
2023-03-26T07:09:12.410Z,6.78
2023-03-26T07:11:41.547Z,6.80
2023-03-26T07:14:27.993Z,7.12
2023-03-26T07:17:20.661Z,7.81
2023-03-26T07:20:08.088Z,8.03
2023-03-26T07:22:35.129Z,8.50
2023-03-26T07:25:04.754Z,8.93
2023-03-26T07:28:00.211Z,8.87
2023-03-26T07:30:43.660Z,9.19
2023-03-26T07:33:28.593Z,9.36
2023-03-26T07:36:25.075Z,9.76
2023-03-26T07:39:14.471Z,9.12
2023-03-26T07:42:05.896Z,8.97
2023-03-26T07:44:51.048Z,8.77
2023-03-26T07:47:33.668Z,8.98
2023-03-26T07:50:25.423Z,8.95
2023-03-26T07:53:09.135Z,8.80
2023-03-26T07:56:02.822Z,8.92
2023-03-26T07:58:55.708Z,8.96
2023-03-26T08:01:51.466Z,9.05
2023-03-26T08:04:42.506Z,8.97
2023-03-26T08:07:39.509Z,9.56
2023-03-26T08:10:26.173Z,9.49
2023-03-26T08:13:10.804Z,8.91
2023-03-26T08:15:43.979Z,9.23
2023-03-26T08:18:13.720Z,9.75
2023-03-26T08:20:44.848Z,8.92
2023-03-26T08:23:11.266Z,9.35
2023-03-26T08:25:52.626Z,9.38
2023-03-26T08:28:28.239Z,9.77
2023-03-26T08:30:57.762Z,9.19
2023-03-26T08:33:27.040Z,9.14
2023-03-26T08:35:53.575Z,9.53
2023-03-26T08:38:20.926Z,9.36
2023-03-26T08:40:50.443Z,9.55
2023-03-26T08:43:35.805Z,9.71
2023-03-26T08:46:12.713Z,9.94
2023-03-26T08:48:57.944Z,9.79
2023-03-26T08:51:27.840Z,9.64
2023-03-26T08:54:15.604Z,10.03
2023-03-26T08:56:42.316Z,9.42
2023-03-26T08:59:21.413Z,9.45
2023-03-26T09:01:50.981Z,9.99
2023-03-26T09:04:38.276Z,10.12
2023-03-26T09:07:20.420Z,10.28
2023-03-26T09:10:03.030Z,10.09
2023-03-26T09:12:44.663Z,10.63
2023-03-26T09:15:40.388Z,11.00
2023-03-26T09:18:06.921Z,11.18
2023-03-26T09:20:54.629Z,10.38
2023-03-26T09:23:31.868Z,10.67
2023-03-26T09:26:15.485Z,10.85
2023-03-26T09:29:02.962Z,11.00
2023-03-26T09:31:29.417Z,12.10
2023-03-26T09:34:03.110Z,11.92
2023-03-26T09:36:44.946Z,11.28
2023-03-26T09:39:27.960Z,11.60
2023-03-26T09:42:12.960Z,11.98
2023-03-26T09:44:58.113Z,11.24
2023-03-26T09:47:38.458Z,12.54
2023-03-26T09:50:24.192Z,12.78
2023-03-26T09:52:59.688Z,12.58
2023-03-26T09:55:26.168Z,13.36
2023-03-26T09:57:54.187Z,12.66
2023-03-26T10:00:24.017Z,13.43
2023-03-26T10:03:03.894Z,13.20
2023-03-26T10:05:41.360Z,12.58
2023-03-26T10:08:11.128Z,13.89
2023-03-26T10:10:43.743Z,13.65
2023-03-26T10:13:19.285Z,13.35
2023-03-26T10:16:07.171Z,13.07
2023-03-26T10:18:36.608Z,13.63
2023-03-26T10:21:07.039Z,13.28
2023-03-26T10:23:54.014Z,13.05
2023-03-26T10:26:28.849Z,13.95
2023-03-26T10:29:08.709Z,15.51
2023-03-26T10:31:38.207Z,15.52
2023-03-26T10:34:29.225Z,15.67
2023-03-26T10:37:16.143Z,15.98
2023-03-26T10:39:43.616Z,16.49
2023-03-26T10:42:13.166Z,16.96
2023-03-26T10:45:02.897Z,16.09
2023-03-26T10:47:34.962Z,15.69
2023-03-26T10:50:25.587Z,16.26
2023-03-26T10:53:10.253Z,15.85
2023-03-26T10:55:48.257Z,15.96
2023-03-26T10:58:20.444Z,15.53
2023-03-26T11:00:56.789Z,16.34
2023-03-26T11:03:30.044Z,15.79
2023-03-26T11:06:00.367Z,16.66
2023-03-26T11:08:35.509Z,15.74
2023-03-26T11:11:05.287Z,15.77
2023-03-26T11:13:55.566Z,15.92
2023-03-26T11:16:28.171Z,16.19
2023-03-26T11:19:09.801Z,16.87
2023-03-26T11:21:43.147Z,16.95
2023-03-26T11:24:28.622Z,16.48
2023-03-26T11:26:57.845Z,16.61
2023-03-26T11:30:01.219Z,17.07
2023-03-26T11:32:35.550Z,16.70
2023-03-26T11:35:08.216Z,17.29
2023-03-26T11:37:46.919Z,17.33
2023-03-26T11:40:16.271Z,18.14
2023-03-26T11:42:43.621Z,17.92
2023-03-26T11:45:31.743Z,17.30
2023-03-26T11:48:15.035Z,17.47
2023-03-26T11:50:47.105Z,17.90
2023-03-26T11:53:18.593Z,17.94
2023-03-26T11:55:53.680Z,17.77
2023-03-26T11:58:39.053Z,18.21
2023-03-26T12:01:13.182Z,19.31
2023-03-26T12:03:40.499Z,20.04
2023-03-26T12:06:22.610Z,19.64
2023-03-26T12:08:49.904Z,18.79
2023-03-26T12:11:18.369Z,18.64
2023-03-26T12:13:51.121Z,18.01
2023-03-26T12:16:19.539Z,17.79
2023-03-26T12:18:47.441Z,18.44
2023-03-26T12:21:15.406Z,18.28
2023-03-26T12:23:56.384Z,18.08
2023-03-26T12:26:37.484Z,17.29
2023-03-26T12:29:09.069Z,17.48
2023-03-26T12:31:54.338Z,18.22
2023-03-26T12:34:22.371Z,18.60
2023-03-26T12:36:54.503Z,18.85
2023-03-26T12:40:07.795Z,18.88
2023-03-26T12:44:44.921Z,18.51
2023-03-26T12:45:23.821Z,18.29
2023-03-26T12:48:00.068Z,18.64
2023-03-26T12:50:51.800Z,18.99
2023-03-26T12:53:33.469Z,18.79
2023-03-26T12:56:08.577Z,17.85
2023-03-26T12:58:44.971Z,17.81
2023-03-26T13:01:28.290Z,17.26
2023-03-26T13:04:04.025Z,17.29
2023-03-26T13:06:30.547Z,17.14
2023-03-26T13:09:00.378Z,17.50
2023-03-26T13:11:36.052Z,17.73
2023-03-26T13:14:07.610Z,17.16
2023-03-26T13:16:36.468Z,17.10
2023-03-26T13:19:32.625Z,17.99
2023-03-26T13:21:59.070Z,18.21
2023-03-26T13:24:47.084Z,18.42
2023-03-26T13:27:16.745Z,18.18
2023-03-26T13:29:56.210Z,18.73
2023-03-26T13:32:22.715Z,18.79
2023-03-26T13:35:08.308Z,17.78
2023-03-26T13:37:37.751Z,17.62
2023-03-26T13:40:10.025Z,18.36
2023-03-26T13:42:37.809Z,17.58
2023-03-26T13:45:16.515Z,17.45
2023-03-26T13:47:45.863Z,17.79
2023-03-26T13:50:18.476Z,17.13
2023-03-26T13:52:48.208Z,18.10
2023-03-26T13:55:14.613Z,17.91
2023-03-26T13:57:50.160Z,17.57
2023-03-26T14:00:23.173Z,16.77
2023-03-26T14:02:53.513Z,17.68
2023-03-26T14:05:23.098Z,16.95
2023-03-26T14:07:52.583Z,17.11
2023-03-26T14:10:31.026Z,17.12
2023-03-26T14:13:16.239Z,17.04
2023-03-26T14:15:56.051Z,16.76
2023-03-26T14:18:27.484Z,16.89
2023-03-26T14:21:08.317Z,16.60
2023-03-26T14:23:35.115Z,16.12
2023-03-26T14:26:01.565Z,16.26
2023-03-26T14:28:34.201Z,16.50
2023-03-26T14:31:00.646Z,16.64
2023-03-26T14:33:27.908Z,16.52
2023-03-26T14:36:14.890Z,16.78
2023-03-26T14:38:44.403Z,16.52
2023-03-26T14:41:23.068Z,16.52
2023-03-26T14:43:59.536Z,16.70
2023-03-26T14:46:38.240Z,16.80
2023-03-26T14:49:16.548Z,16.26
2023-03-26T14:51:53.167Z,16.69
2023-03-26T14:54:22.492Z,16.54
2023-03-26T14:56:52.141Z,16.49
2023-03-26T14:59:24.732Z,16.79
2023-03-26T15:01:57.460Z,16.97
2023-03-26T15:04:27.055Z,16.94
2023-03-26T15:07:02.829Z,17.03
2023-03-26T15:09:49.876Z,16.83
2023-03-26T15:12:22.072Z,16.64
2023-03-26T15:15:10.449Z,16.74
2023-03-26T15:17:43.197Z,16.65
2023-03-26T15:20:25.942Z,16.30
2023-03-26T15:23:01.555Z,16.33
2023-03-26T15:25:27.992Z,16.20
2023-03-26T15:28:13.427Z,16.38
2023-03-26T15:31:06.609Z,16.21
2023-03-26T15:33:35.975Z,16.14
2023-03-26T15:36:14.055Z,15.88
2023-03-26T15:38:52.766Z,16.28
2023-03-26T15:41:38.180Z,16.12
2023-03-26T15:44:24.938Z,16.04
2023-03-26T15:46:51.804Z,15.96
2023-03-26T15:49:36.659Z,15.79
2023-03-26T15:52:22.052Z,15.77
2023-03-26T15:54:48.508Z,15.69
2023-03-26T15:57:18.042Z,15.63
2023-03-26T15:59:56.337Z,15.54
2023-03-26T16:02:39.902Z,15.42
2023-03-26T16:05:25.253Z,15.12
2023-03-26T16:07:58.878Z,15.03
2023-03-26T16:10:40.776Z,15.23
2023-03-26T16:13:19.198Z,15.23
2023-03-26T16:16:12.186Z,14.66
2023-03-26T16:18:53.494Z,14.75
2023-03-26T16:21:34.406Z,14.30
2023-03-26T16:26:47.489Z,12.86
2023-03-26T16:29:18.127Z,13.13
2023-03-26T16:32:00.580Z,13.18
2023-03-26T16:34:38.849Z,13.35
2023-03-26T16:37:08.014Z,13.20
2023-03-26T16:39:38.943Z,13.03
2023-03-26T16:42:29.554Z,12.84
2023-03-26T16:45:02.293Z,12.67
2023-03-26T16:47:38.629Z,12.43
2023-03-26T16:50:21.273Z,12.64
2023-03-26T16:52:47.833Z,12.72
2023-03-26T16:55:29.864Z,12.48
2023-03-26T16:58:11.610Z,12.45
2023-03-26T17:00:43.897Z,12.29
2023-03-26T17:03:31.744Z,12.19
2023-03-26T17:06:03.412Z,12.09
2023-03-26T17:08:37.734Z,12.26
2023-03-26T17:11:04.240Z,12.12
2023-03-26T17:13:31.038Z,12.15
2023-03-26T17:16:14.712Z,11.84
2023-03-26T17:18:41.410Z,11.90
2023-03-26T17:21:15.565Z,11.98
2023-03-26T17:23:45.317Z,11.84
2023-03-26T17:26:18.805Z,11.69
2023-03-26T17:28:50.687Z,11.69
2023-03-26T17:31:40.307Z,11.61
2023-03-26T17:34:25.391Z,11.72
2023-03-26T17:36:56.341Z,11.66
2023-03-26T17:39:41.932Z,11.62
2023-03-26T17:42:18.764Z,11.58
2023-03-26T17:44:55.612Z,11.73
2023-03-26T17:47:41.212Z,11.72
2023-03-26T17:50:13.875Z,11.53
2023-03-26T17:52:47.892Z,11.66
2023-03-26T17:55:16.764Z,11.61
2023-03-26T17:57:44.180Z,11.18
2023-03-26T18:00:18.411Z,11.29
2023-03-26T18:02:48.347Z,11.35
2023-03-26T18:05:16.704Z,11.42
2023-03-26T18:07:49.314Z,11.30
2023-03-26T18:10:35.114Z,11.13
2023-03-26T18:13:04.572Z,11.48
2023-03-26T18:15:49.868Z,11.25
2023-03-26T18:18:19.897Z,11.20
2023-03-26T18:20:47.924Z,11.09
2023-03-26T18:23:26.590Z,11.10
2023-03-26T18:25:58.087Z,11.19
2023-03-26T18:28:34.204Z,11.38
2023-03-26T18:31:16.437Z,11.13
2023-03-26T18:33:44.863Z,11.06
2023-03-26T18:36:11.844Z,11.09
2023-03-26T18:38:40.022Z,10.93
2023-03-26T18:41:09.725Z,10.93
2023-03-26T18:43:43.902Z,10.98
2023-03-26T18:46:12.546Z,10.80
2023-03-26T18:48:39.439Z,10.81
2023-03-26T18:51:06.707Z,10.91
2023-03-26T18:53:38.903Z,10.88
2023-03-26T18:56:24.173Z,10.88
2023-03-26T18:58:51.765Z,10.90
2023-03-26T19:01:25.374Z,10.90
2023-03-26T19:03:53.600Z,10.86
2023-03-26T19:06:20.925Z,10.89
2023-03-26T19:08:47.946Z,10.95
2023-03-26T19:11:16.442Z,10.96
2023-03-26T19:13:42.987Z,10.86
2023-03-26T19:16:17.333Z,10.73
2023-03-26T19:18:44.499Z,10.79
2023-03-26T19:21:11.098Z,10.68
2023-03-26T19:23:38.899Z,10.59
2023-03-26T19:26:06.840Z,10.55
2023-03-26T19:28:39.048Z,10.38
2023-03-26T19:31:10.324Z,10.42
2023-03-26T19:33:39.311Z,10.33
2023-03-26T19:36:17.756Z,10.11
2023-03-26T19:38:54.554Z,10.25
2023-03-26T19:41:21.485Z,9.93
2023-03-26T19:43:48.774Z,10.07
2023-03-26T19:46:15.356Z,10.02
2023-03-26T19:48:45.596Z,9.89
2023-03-26T19:51:32.754Z,9.84
2023-03-26T19:54:00.868Z,9.72
2023-03-26T19:56:27.473Z,9.77
2023-03-26T19:58:54.422Z,9.68
2023-03-26T20:01:23.555Z,9.68
2023-03-26T20:03:58.891Z,9.54
2023-03-26T20:08:57.892Z,9.53
2023-03-26T20:11:30.588Z,9.36
2023-03-26T20:13:57.046Z,9.28
2023-03-26T20:16:25.656Z,9.47
2023-03-26T20:18:52.193Z,9.37
2023-03-26T20:21:18.664Z,9.52
2023-03-26T20:23:45.204Z,9.54
2023-03-26T20:26:13.620Z,9.45
2023-03-26T20:28:47.508Z,9.52
2023-03-26T20:31:25.177Z,9.51
2023-03-26T20:33:52.579Z,9.27
2023-03-26T20:36:33.916Z,9.78
2023-03-26T20:39:02.513Z,9.25
2023-03-26T20:41:29.060Z,8.84
2023-03-26T20:43:55.646Z,9.06
2023-03-26T20:46:23.279Z,9.46
2023-03-26T20:48:58.082Z,9.31
2023-03-26T20:51:24.567Z,9.28
2023-03-26T20:53:51.015Z,9.14
2023-03-26T20:56:18.552Z,9.09
2023-03-26T20:58:45.670Z,9.11
2023-03-26T21:01:13.161Z,8.65
2023-03-26T21:03:40.684Z,8.75
2023-03-26T21:06:13.295Z,8.68
2023-03-26T21:08:41.306Z,8.42
2023-03-26T21:11:13.553Z,8.45
2023-03-26T21:14:00.152Z,8.62
2023-03-26T21:16:26.818Z,8.58
2023-03-26T21:18:53.519Z,8.62
2023-03-26T21:21:26.102Z,8.75
2023-03-26T21:23:59.377Z,8.54
2023-03-26T21:26:45.164Z,8.55
2023-03-26T21:29:12.067Z,8.66
2023-03-26T21:31:38.696Z,8.73
2023-03-26T21:34:05.610Z,8.77
2023-03-26T21:36:32.342Z,8.70
2023-03-26T21:38:59.104Z,8.81
2023-03-26T21:41:25.682Z,8.67
2023-03-26T21:43:52.147Z,8.74
2023-03-26T21:46:18.803Z,8.77
2023-03-26T21:48:45.488Z,8.54
2023-03-26T21:51:14.761Z,8.59
2023-03-26T21:53:42.445Z,8.68
2023-03-26T21:56:11.915Z,8.70
2023-03-26T21:58:47.758Z,8.69
2023-03-26T22:01:20.633Z,8.55
2023-03-26T22:03:56.410Z,8.53
2023-03-26T22:06:22.840Z,8.75
2023-03-26T22:08:49.360Z,8.77
2023-03-26T22:11:15.795Z,8.63
2023-03-26T22:13:42.345Z,8.56
2023-03-26T22:16:09.821Z,8.83
2023-03-26T22:18:36.608Z,8.73
2023-03-26T22:21:03.340Z,8.72
2023-03-26T22:23:34.199Z,8.80
2023-03-26T22:26:00.781Z,8.71
2023-03-26T22:28:27.656Z,8.36
2023-03-26T22:30:54.427Z,8.41
2023-03-26T22:33:21.270Z,8.54
2023-03-26T22:35:47.820Z,8.69
2023-03-26T22:38:14.943Z,8.67
2023-03-26T22:40:41.437Z,8.41
2023-03-26T22:43:07.906Z,8.34
2023-03-26T22:45:34.836Z,8.21
2023-03-26T22:48:04.484Z,8.30
2023-03-26T22:50:31.817Z,8.22
2023-03-26T22:52:58.298Z,8.04
2023-03-26T22:55:28.632Z,8.12
2023-03-26T22:57:56.355Z,8.16
2023-03-26T23:00:22.863Z,8.09
2023-03-26T23:02:49.995Z,8.04
2023-03-26T23:05:19.558Z,8.25
2023-03-26T23:07:46.234Z,8.21
2023-03-26T23:10:13.317Z,8.18
2023-03-26T23:12:40.243Z,8.60
2023-03-26T23:15:07.979Z,8.63
2023-03-26T23:17:35.523Z,8.39
2023-03-26T23:20:03.099Z,8.59
2023-03-26T23:22:29.578Z,8.59
2023-03-26T23:24:56.110Z,8.62
2023-03-26T23:27:22.859Z,8.53
2023-03-26T23:29:49.422Z,8.57
2023-03-26T23:32:23.976Z,8.54
2023-03-26T23:34:52.565Z,8.45
2023-03-26T23:37:22.940Z,8.51
2023-03-26T23:39:49.891Z,8.61
2023-03-26T23:42:16.454Z,8.23
2023-03-26T23:44:56.590Z,8.34
2023-03-26T23:47:23.169Z,8.18
2023-03-26T23:49:49.824Z,8.02
2023-03-26T23:52:16.282Z,8.30
2023-03-26T23:54:42.725Z,8.15
2023-03-26T23:57:09.365Z,8.20
2023-03-26T23:59:35.961Z,8.04
